createdAt,value
2022-11-06T00:02:20.281Z,100967.84
2022-11-06T00:04:48.890Z,100967.00
2022-11-06T00:07:15.482Z,100965.94
2022-11-06T00:09:44.802Z,100966.06
2022-11-06T00:12:13.196Z,100966.78
2022-11-06T00:14:41.058Z,100973.16
2022-11-06T00:17:08.929Z,100975.72
2022-11-06T00:19:37.242Z,100971.97
2022-11-06T00:22:05.554Z,100976.44
2022-11-06T00:24:33.317Z,100969.44
2022-11-06T00:27:02.201Z,100969.44
2022-11-06T00:29:31.803Z,100968.59
2022-11-06T00:31:59.345Z,100961.59
2022-11-06T00:34:26.961Z,100960.84
2022-11-06T00:36:54.598Z,100960.84
2022-11-06T00:39:22.260Z,100958.19
2022-11-06T00:41:49.885Z,100961.69
2022-11-06T00:44:18.804Z,100959.03
2022-11-06T00:46:47.031Z,100959.19
2022-11-06T00:49:15.731Z,100959.88
2022-11-06T00:51:43.393Z,100959.88
2022-11-06T00:54:13.015Z,100958.34
2022-11-06T00:56:41.885Z,100965.31
2022-11-06T00:59:13.856Z,100973.66
2022-11-06T01:01:44.008Z,100974.63
2022-11-06T01:04:14.122Z,100968.47
2022-11-06T01:06:44.871Z,100974.03
2022-11-06T01:09:14.363Z,100963.44
2022-11-06T01:12:11.923Z,100971.13
2022-11-06T01:14:33.906Z,100964.41
2022-11-06T01:17:02.864Z,100957.28
2022-11-06T01:19:30.515Z,100957.00
2022-11-06T01:21:58.104Z,100955.19
2022-11-06T01:24:27.811Z,100952.81
2022-11-06T01:27:24.883Z,100952.06
2022-11-06T01:29:43.739Z,100951.34
2022-11-06T01:32:13.188Z,100955.81
2022-11-06T01:34:41.797Z,100947.59
2022-11-06T01:37:14.302Z,100946.03
2022-11-06T01:39:42.929Z,100942.69
2022-11-06T01:42:12.047Z,100942.41
2022-11-06T01:45:19.699Z,100931.94
2022-11-06T01:47:49.789Z,100938.22
2022-11-06T01:50:18.790Z,100933.59
2022-11-06T01:52:49.660Z,100919.63
2022-11-06T01:55:22.836Z,100918.53
2022-11-06T01:57:51.410Z,100913.34
2022-11-06T02:00:20.847Z,100902.00
2022-11-06T02:02:51.176Z,100902.25
2022-11-06T02:05:19.546Z,100895.00
2022-11-06T02:07:47.167Z,100891.91
2022-11-06T02:10:14.718Z,100891.28
2022-11-06T02:13:00.827Z,100893.09
2022-11-06T02:15:38.123Z,100886.22
2022-11-06T02:18:25.020Z,100894.56
2022-11-06T02:21:11.821Z,100881.53
2022-11-06T02:23:57.055Z,100868.97
2022-11-06T02:26:53.850Z,100867.78
2022-11-06T02:29:27.905Z,100871.88
2022-11-06T02:32:00.325Z,100872.38
2022-11-06T02:34:29.486Z,100883.25
2022-11-06T02:37:02.276Z,100868.28
2022-11-06T02:39:33.582Z,100871.31
2022-11-06T02:42:05.878Z,100872.25
2022-11-06T02:44:38.209Z,100874.31
2022-11-06T02:47:07.675Z,100868.28
2022-11-06T02:49:40.391Z,100875.53
2022-11-06T02:52:14.975Z,100866.09
2022-11-06T02:54:50.370Z,100866.50
2022-11-06T02:57:21.854Z,100862.38
2022-11-06T02:59:52.695Z,100865.38
2022-11-06T03:02:24.364Z,100862.03
2022-11-06T03:04:56.057Z,100854.19
2022-11-06T03:07:32.796Z,100861.41
2022-11-06T03:10:00.733Z,100859.97
2022-11-06T03:12:33.823Z,100860.19
2022-11-06T03:15:07.909Z,100855.03
2022-11-06T03:20:38.804Z,100847.28
2022-11-06T03:23:37.441Z,100844.88
2022-11-06T03:26:14.159Z,100841.47
2022-11-06T03:28:54.828Z,100842.56
2022-11-06T03:31:34.963Z,100840.06
2022-11-06T03:34:08.793Z,100842.22
2022-11-06T03:36:42.004Z,100844.00
2022-11-06T03:39:15.006Z,100847.50
2022-11-06T03:41:48.060Z,100848.56
2022-11-06T03:44:21.061Z,100855.69
2022-11-06T03:46:54.665Z,100851.22
2022-11-06T03:49:25.863Z,100849.88
2022-11-06T03:51:58.109Z,100844.72
2022-11-06T03:54:29.305Z,100837.84
2022-11-06T03:57:03.918Z,100843.28
2022-11-06T03:59:39.678Z,100829.78
2022-11-06T04:02:08.898Z,100835.91
2022-11-06T04:04:39.485Z,100844.34
2022-11-06T04:07:11.837Z,100851.78
2022-11-06T04:10:01.147Z,100851.06
2022-11-06T04:12:49.789Z,100848.44
2022-11-06T04:15:21.425Z,100847.72
2022-11-06T04:17:49.092Z,100853.84
2022-11-06T04:20:33.629Z,100860.94
2022-11-06T04:23:09.453Z,100852.25
2022-11-06T04:26:11.432Z,100857.44
2022-11-06T04:28:49.293Z,100853.84
2022-11-06T04:31:31.887Z,100854.78
2022-11-06T04:34:12.830Z,100838.28
2022-11-06T04:37:15.851Z,100850.81
2022-11-06T04:39:54.759Z,100853.47
2022-11-06T04:42:28.909Z,100851.75
2022-11-06T04:45:02.398Z,100858.66
2022-11-06T04:47:33.815Z,100845.53
2022-11-06T04:50:03.677Z,100839.34
2022-11-06T04:52:31.316Z,100850.56
2022-11-06T04:55:03.825Z,100844.56
2022-11-06T04:57:31.451Z,100846.13
2022-11-06T04:59:59.435Z,100839.84
2022-11-06T05:02:27.014Z,100834.34
2022-11-06T05:04:55.974Z,100833.50
2022-11-06T05:07:23.829Z,100819.16
2022-11-06T05:09:51.486Z,100817.84
2022-11-06T05:12:19.927Z,100815.19
2022-11-06T05:14:47.482Z,100811.84
2022-11-06T05:17:15.906Z,100813.50
2022-11-06T05:19:43.425Z,100806.28
2022-11-06T05:22:30.817Z,100808.09
2022-11-06T05:25:00.802Z,100809.06
2022-11-06T05:27:28.368Z,100803.25
2022-11-06T05:29:55.892Z,100804.09
2022-11-06T05:32:23.425Z,100798.47
2022-11-06T05:34:51.314Z,100798.09
2022-11-06T05:37:20.861Z,100797.13
2022-11-06T05:39:52.298Z,100789.31
2022-11-06T05:42:19.858Z,100786.66
2022-11-06T05:44:48.305Z,100787.72
2022-11-06T05:47:16.295Z,100775.31
2022-11-06T05:49:43.846Z,100767.97
2022-11-06T05:52:11.842Z,100762.69
2022-11-06T05:54:40.745Z,100761.00
2022-11-06T05:57:08.787Z,100765.69
2022-11-06T05:59:37.839Z,100757.88
2022-11-06T06:02:05.455Z,100753.41
2022-11-06T06:04:33.082Z,100748.94
2022-11-06T06:07:00.725Z,100749.91
2022-11-06T06:09:28.411Z,100755.69
2022-11-06T06:11:57.336Z,100755.81
2022-11-06T06:14:25.217Z,100750.66
2022-11-06T06:16:54.317Z,100747.13
2022-11-06T06:19:23.302Z,100751.72
2022-11-06T06:21:50.881Z,100755.06
2022-11-06T06:24:18.586Z,100755.19
2022-11-06T06:26:46.857Z,100746.41
2022-11-06T06:29:16.833Z,100749.91
2022-11-06T06:31:45.902Z,100747.38
2022-11-06T06:34:13.804Z,100748.94
2022-11-06T06:36:41.380Z,100742.78
2022-11-06T06:39:09.301Z,100746.53
2022-11-06T06:41:37.099Z,100753.63
2022-11-06T06:44:04.918Z,100746.41
2022-11-06T06:46:33.851Z,100746.53
2022-11-06T06:49:02.045Z,100749.31
2022-11-06T06:51:34.226Z,100750.03
2022-11-06T06:54:01.777Z,100751.09
2022-11-06T06:56:29.330Z,100753.63
2022-11-06T06:58:57.821Z,100746.53
2022-11-06T07:01:27.517Z,100739.56
2022-11-06T07:04:02.795Z,100750.03
2022-11-06T07:06:58.419Z,100743.88
2022-11-06T07:09:26.392Z,100750.16
2022-11-06T07:11:53.938Z,100751.97
2022-11-06T07:14:21.427Z,100747.50
2022-11-06T07:16:53.601Z,100750.03
2022-11-06T07:19:23.031Z,100751.56
2022-11-06T07:21:52.300Z,100744.47
2022-11-06T07:24:21.023Z,100749.41
2022-11-06T07:26:50.222Z,100757.25
2022-11-06T07:29:18.840Z,100749.56
2022-11-06T07:31:46.898Z,100750.91
2022-11-06T07:34:19.192Z,100757.63
2022-11-06T07:36:48.146Z,100754.75
2022-11-06T07:39:16.335Z,100760.66
2022-11-06T07:44:38.407Z,100759.69
2022-11-06T07:47:06.066Z,100754.50
2022-11-06T07:49:33.630Z,100753.06
2022-11-06T07:54:55.987Z,100764.13
2022-11-06T07:57:23.702Z,100767.88
2022-11-06T07:59:51.518Z,100771.84
2022-11-06T08:02:19.867Z,100778.56
2022-11-06T08:04:47.828Z,100767.31
2022-11-06T08:07:22.797Z,100769.34
2022-11-06T08:09:52.336Z,100760.28
2022-11-06T08:12:19.872Z,100755.72
2022-11-06T08:14:48.337Z,100761.94
2022-11-06T08:17:17.849Z,100747.44
2022-11-06T08:19:45.425Z,100740.31
2022-11-06T08:22:12.986Z,100744.28
2022-11-06T08:24:41.901Z,100734.50
2022-11-06T08:27:09.499Z,100726.53
2022-11-06T08:29:41.286Z,100718.34
2022-11-06T08:32:09.523Z,100716.25
2022-11-06T08:34:37.203Z,100707.19
2022-11-06T08:37:04.772Z,100715.59
2022-11-06T08:39:36.335Z,100704.88
2022-11-06T08:42:07.452Z,100718.19
2022-11-06T08:44:36.837Z,100714.16
2022-11-06T08:47:04.493Z,100707.38
2022-11-06T08:49:31.984Z,100705.06
2022-11-06T08:51:59.820Z,100700.03
2022-11-06T08:54:27.470Z,100703.69
2022-11-06T08:56:57.803Z,100707.09
2022-11-06T08:59:26.677Z,100710.16
2022-11-06T09:01:56.324Z,100705.28
2022-11-06T09:04:25.234Z,100705.75
2022-11-06T09:06:53.167Z,100702.41
2022-11-06T09:09:21.288Z,100698.91
2022-11-06T09:11:49.849Z,100692.53
2022-11-06T09:14:18.370Z,100689.63
2022-11-06T09:16:47.354Z,100687.81
2022-11-06T09:19:14.869Z,100685.44
2022-11-06T09:25:02.463Z,100681.28
2022-11-06T09:27:31.251Z,100670.66
2022-11-06T09:30:00.843Z,100667.44
2022-11-06T09:32:29.759Z,100666.75
2022-11-06T09:34:57.285Z,100669.69
2022-11-06T09:37:25.063Z,100666.59
2022-11-06T09:39:52.620Z,100655.53
2022-11-06T09:42:31.096Z,100654.97
2022-11-06T09:45:08.117Z,100649.22
2022-11-06T09:47:41.443Z,100658.31
2022-11-06T09:50:18.908Z,100661.25
2022-11-06T09:52:51.310Z,100659.38
2022-11-06T09:55:22.886Z,100651.50
2022-11-06T09:57:56.021Z,100647.69
2022-11-06T10:00:24.995Z,100646.13
2022-11-06T10:02:58.565Z,100648.06
2022-11-06T10:05:28.415Z,100639.19
2022-11-06T10:07:59.032Z,100635.09
2022-11-06T10:10:31.839Z,100643.84
2022-11-06T10:13:23.260Z,100634.41
2022-11-06T10:16:00.920Z,100633.59
2022-11-06T10:18:44.429Z,100619.81
2022-11-06T10:21:23.818Z,100630.47
2022-11-06T10:23:57.679Z,100622.47
2022-11-06T10:26:36.340Z,100624.47
2022-11-06T10:29:29.065Z,100628.63
2022-11-06T10:32:11.988Z,100613.47
2022-11-06T10:34:44.401Z,100617.69
2022-11-06T10:37:17.536Z,100614.03
2022-11-06T10:39:49.837Z,100614.19
2022-11-06T10:42:21.857Z,100604.03
2022-11-06T10:44:54.941Z,100608.69
2022-11-06T10:47:24.760Z,100602.19
2022-11-06T10:49:56.783Z,100604.88
2022-11-06T10:52:49.874Z,100598.84
2022-11-06T10:55:45.395Z,100605.19
2022-11-06T10:58:17.987Z,100597.41
2022-11-06T11:00:45.741Z,100591.75
2022-11-06T11:03:22.904Z,100576.69
2022-11-06T11:05:51.842Z,100581.09
2022-11-06T11:08:41.829Z,100573.56
2022-11-06T11:11:26.564Z,100577.81
2022-11-06T11:14:16.469Z,100565.56
2022-11-06T11:16:46.953Z,100563.84
2022-11-06T11:19:23.257Z,100559.75
2022-11-06T11:21:57.608Z,100555.78
2022-11-06T11:24:26.139Z,100542.84
2022-11-06T11:26:56.488Z,100538.88
2022-11-06T11:29:27.783Z,100532.59
2022-11-06T11:31:58.652Z,100522.47
2022-11-06T11:34:29.121Z,100510.84
2022-11-06T11:37:01.103Z,100506.66
2022-11-06T11:39:32.783Z,100501.50
2022-11-06T11:42:27.004Z,100509.59
2022-11-06T11:45:13.431Z,100500.63
2022-11-06T11:47:42.979Z,100503.75
2022-11-06T11:50:28.585Z,100498.41
2022-11-06T11:53:04.365Z,100514.44
2022-11-06T11:55:41.744Z,100495.78
2022-11-06T11:58:19.875Z,100475.78
2022-11-06T12:00:56.831Z,100463.63
2022-11-06T12:03:29.119Z,100453.78
2022-11-06T12:06:07.799Z,100445.34
2022-11-06T12:08:40.551Z,100436.66
2022-11-06T12:11:08.664Z,100433.81
2022-11-06T12:13:36.985Z,100422.97
2022-11-06T12:16:09.532Z,100425.63
2022-11-06T12:18:41.943Z,100419.94
2022-11-06T12:21:16.532Z,100419.25
2022-11-06T12:23:51.747Z,100414.59
2022-11-06T12:26:27.868Z,100419.69
2022-11-06T12:29:04.952Z,100415.94
2022-11-06T12:31:39.807Z,100412.63
2022-11-06T12:34:17.649Z,100404.75
2022-11-06T12:36:59.818Z,100400.09
2022-11-06T12:39:34.778Z,100401.09
2022-11-06T12:42:04.808Z,100395.25
2022-11-06T12:44:32.475Z,100385.56
2022-11-06T12:47:08.908Z,100384.09
2022-11-06T12:50:02.920Z,100371.28
2022-11-06T12:52:45.682Z,100366.44
2022-11-06T12:55:24.905Z,100368.78
2022-11-06T12:58:16.695Z,100363.09
2022-11-06T13:00:59.004Z,100355.19
2022-11-06T13:03:43.041Z,100351.69
2022-11-06T13:06:16.163Z,100350.53
2022-11-06T13:08:52.863Z,100330.03
2022-11-06T13:11:34.479Z,100329.22
2022-11-06T13:14:12.011Z,100322.19
2022-11-06T13:16:46.395Z,100310.84
2022-11-06T13:19:23.144Z,100314.19
2022-11-06T13:22:15.829Z,100304.84
2022-11-06T13:24:50.139Z,100304.50
2022-11-06T13:27:27.272Z,100307.94
2022-11-06T13:29:58.440Z,100296.59
2022-11-06T13:32:28.524Z,100293.75
2022-11-06T13:34:57.905Z,100288.09
2022-11-06T13:37:39.272Z,100282.56
2022-11-06T13:40:19.451Z,100288.41
2022-11-06T13:42:52.502Z,100294.56
2022-11-06T13:45:21.907Z,100313.44
2022-11-06T13:48:04.653Z,100302.09
2022-11-06T13:50:38.428Z,100308.41
2022-11-06T13:53:15.849Z,100306.91
2022-11-06T13:55:57.995Z,100321.94
2022-11-06T13:58:43.792Z,100322.94
2022-11-06T14:01:27.048Z,100330.44
2022-11-06T14:04:30.845Z,100332.59
2022-11-06T14:07:02.839Z,100327.72
2022-11-06T14:09:35.115Z,100320.38
2022-11-06T14:12:08.900Z,100322.56
2022-11-06T14:14:40.750Z,100314.56
2022-11-06T14:17:20.710Z,100318.84
2022-11-06T14:20:04.258Z,100317.19
2022-11-06T14:22:33.688Z,100319.84
2022-11-06T14:25:02.497Z,100304.84
2022-11-06T14:28:05.874Z,100312.00
2022-11-06T14:31:11.623Z,100314.00
2022-11-06T14:34:02.624Z,100317.53
2022-11-06T14:36:34.377Z,100309.44
2022-11-06T14:39:03.704Z,100301.91
2022-11-06T14:41:54.950Z,100304.91
2022-11-06T14:44:27.399Z,100310.03
2022-11-06T14:48:09.629Z,100303.63
2022-11-06T14:51:30.933Z,100295.13
2022-11-06T14:54:03.197Z,100304.78
2022-11-06T14:56:32.119Z,100300.41
2022-11-06T14:59:09.412Z,100295.72
2022-11-06T15:01:38.897Z,100291.69
2022-11-06T15:04:15.679Z,100284.53
2022-11-06T15:06:47.945Z,100275.34
2022-11-06T15:09:47.198Z,100268.47
2022-11-06T15:12:16.961Z,100276.78
2022-11-06T15:15:00.931Z,100263.09
2022-11-06T15:17:33.141Z,100262.72
2022-11-06T15:20:21.909Z,100261.41
2022-11-06T15:23:05.907Z,100258.03
2022-11-06T15:25:35.711Z,100258.34
2022-11-06T15:28:09.138Z,100256.97
2022-11-06T15:30:46.125Z,100247.00
2022-11-06T15:33:18.375Z,100242.66
2022-11-06T15:35:49.512Z,100241.16
2022-11-06T15:38:20.994Z,100238.91
2022-11-06T15:40:54.874Z,100241.88
2022-11-06T15:43:29.902Z,100232.09
2022-11-06T15:46:07.527Z,100228.06
2022-11-06T15:48:35.949Z,100225.38
2022-11-06T15:51:05.281Z,100227.69
2022-11-06T15:53:40.870Z,100223.34
2022-11-06T15:56:10.562Z,100227.13
2022-11-06T15:58:39.656Z,100231.97
2022-11-06T16:01:08.598Z,100224.97
2022-11-06T16:03:45.828Z,100226.09
2022-11-06T16:06:13.676Z,100224.72
2022-11-06T16:08:42.415Z,100221.22
2022-11-06T16:11:14.747Z,100219.72
2022-11-06T16:13:44.906Z,100223.22
2022-11-06T16:16:36.356Z,100218.06
2022-11-06T16:19:06.274Z,100211.19
2022-11-06T16:21:36.643Z,100218.69
2022-11-06T16:24:12.305Z,100218.69
2022-11-06T16:26:46.711Z,100222.34
2022-11-06T16:29:21.922Z,100218.13
2022-11-06T16:31:58.928Z,100214.63
2022-11-06T16:34:42.861Z,100218.13
2022-11-06T16:37:41.224Z,100224.75
2022-11-06T16:40:48.646Z,100225.63
2022-11-06T16:43:20.128Z,100231.38
2022-11-06T16:45:56.293Z,100225.06
2022-11-06T16:48:31.902Z,100238.69
2022-11-06T16:51:01.358Z,100242.09
2022-11-06T16:53:31.951Z,100242.28
2022-11-06T16:56:02.369Z,100239.38
2022-11-06T16:58:34.276Z,100248.09
2022-11-06T17:01:04.566Z,100244.59
2022-11-06T17:03:39.987Z,100230.69
2022-11-06T17:06:08.189Z,100229.09
2022-11-06T17:08:37.688Z,100220.03
2022-11-06T17:11:21.803Z,100216.13
2022-11-06T17:13:51.845Z,100217.97
2022-11-06T17:16:21.563Z,100193.94
2022-11-06T17:18:49.405Z,100175.75
2022-11-06T17:21:18.809Z,100159.13
2022-11-06T17:23:47.366Z,100164.91
2022-11-06T17:26:19.633Z,100157.06
2022-11-06T17:28:47.364Z,100157.06
2022-11-06T17:31:18.184Z,100139.84
2022-11-06T17:33:46.023Z,100115.13
2022-11-06T17:36:19.878Z,100112.25
2022-11-06T17:38:48.174Z,100115.50
2022-11-06T17:41:29.461Z,100106.81
2022-11-06T17:43:57.656Z,100112.56
2022-11-06T17:46:28.688Z,100121.97
2022-11-06T17:48:56.769Z,100126.47
2022-11-06T17:51:41.218Z,100122.69
2022-11-06T17:54:09.165Z,100121.03
2022-11-06T17:56:38.235Z,100116.69
2022-11-06T17:59:06.708Z,100103.56
2022-11-06T18:01:35.845Z,100099.53
2022-11-06T18:04:03.586Z,100094.38
2022-11-06T18:06:31.170Z,100102.78
2022-11-06T18:08:59.964Z,100106.41
2022-11-06T18:11:30.597Z,100105.59
2022-11-06T18:13:58.487Z,100115.50
2022-11-06T18:16:28.387Z,100099.28
2022-11-06T18:18:58.029Z,100089.66
2022-11-06T18:21:26.396Z,100075.38
2022-11-06T18:23:54.096Z,100058.88
2022-11-06T18:26:22.292Z,100061.00
2022-11-06T18:28:50.119Z,100078.63
2022-11-06T18:31:18.519Z,100066.16
2022-11-06T18:33:46.625Z,100049.25
2022-11-06T18:36:16.908Z,100049.56
2022-11-06T18:38:45.004Z,100047.03
2022-11-06T18:41:14.931Z,100045.19
2022-11-06T18:43:42.845Z,100046.34
2022-11-06T18:46:12.992Z,100043.41
2022-11-06T18:48:41.209Z,100047.72
2022-11-06T18:51:10.147Z,100049.69
2022-11-06T18:53:40.162Z,100049.00
2022-11-06T18:56:09.667Z,100063.13
2022-11-06T18:58:37.710Z,100065.63
2022-11-06T19:01:06.677Z,100075.97
2022-11-06T19:03:35.027Z,100080.59
2022-11-06T19:06:03.816Z,100075.97
2022-11-06T19:08:31.544Z,100073.16
2022-11-06T19:11:05.100Z,100080.84
2022-11-06T19:13:32.664Z,100080.97
2022-11-06T19:16:00.539Z,100064.59
2022-11-06T19:18:29.158Z,100055.09
2022-11-06T19:20:57.840Z,100057.44
2022-11-06T19:23:26.866Z,100068.91
2022-11-06T19:26:04.541Z,100063.91
2022-11-06T19:28:44.520Z,100055.94
2022-11-06T19:31:13.465Z,100058.00
2022-11-06T19:33:41.094Z,100069.16
2022-11-06T19:36:09.382Z,100064.00
2022-11-06T19:38:40.952Z,100070.28
2022-11-06T19:41:08.542Z,100065.81
2022-11-06T19:43:38.051Z,100071.28
2022-11-06T19:46:08.523Z,100061.50
2022-11-06T19:48:36.805Z,100065.66
2022-11-06T19:51:04.798Z,100069.16
2022-11-06T19:53:32.396Z,100065.66
2022-11-06T19:56:01.549Z,100060.34
2022-11-06T19:58:29.055Z,100070.00
2022-11-06T20:00:56.840Z,100070.84
2022-11-06T20:03:26.725Z,100071.53
2022-11-06T20:05:55.303Z,100073.19
2022-11-06T20:08:24.166Z,100079.88
2022-11-06T20:10:52.385Z,100080.16
2022-11-06T20:13:21.000Z,100072.75
2022-11-06T20:15:48.592Z,100087.78
2022-11-06T20:18:16.214Z,100074.66
2022-11-06T20:20:46.844Z,100083.88
2022-11-06T20:23:16.541Z,100076.19
2022-11-06T20:25:44.244Z,100085.41
2022-11-06T20:28:11.841Z,100077.44
2022-11-06T20:30:39.337Z,100083.44
2022-11-06T20:33:07.067Z,100080.72
2022-11-06T20:35:36.232Z,100089.91
2022-11-06T20:38:05.349Z,100090.50
2022-11-06T20:40:34.593Z,100095.38
2022-11-06T20:43:03.325Z,100100.41
2022-11-06T20:45:36.873Z,100102.22
2022-11-06T20:48:05.926Z,100095.31
2022-11-06T20:50:34.614Z,100102.44
2022-11-06T20:53:02.410Z,100100.00
2022-11-06T20:55:31.783Z,100092.19
2022-11-06T20:57:59.360Z,100094.09
2022-11-06T21:00:26.990Z,100096.19
2022-11-06T21:03:01.564Z,100090.81
2022-11-06T21:05:30.319Z,100086.66
2022-11-06T21:07:58.213Z,100089.53
2022-11-06T21:10:25.885Z,100104.19
2022-11-06T21:12:56.443Z,100096.34
2022-11-06T21:15:24.473Z,100087.75
2022-11-06T21:17:52.200Z,100096.91
2022-11-06T21:20:22.971Z,100093.75
2022-11-06T21:22:50.904Z,100108.88
2022-11-06T21:25:21.901Z,100106.44
2022-11-06T21:27:49.455Z,100108.13
2022-11-06T21:30:18.906Z,100109.81
2022-11-06T21:32:46.955Z,100118.28
2022-11-06T21:35:15.101Z,100105.69
2022-11-06T21:37:42.680Z,100105.00
2022-11-06T21:40:17.055Z,100122.16
2022-11-06T21:42:45.140Z,100114.25
2022-11-06T21:45:14.995Z,100129.84
2022-11-06T21:47:44.061Z,100132.06
2022-11-06T21:50:11.802Z,100123.75
2022-11-06T21:53:00.978Z,100136.22
2022-11-06T21:55:51.273Z,100127.16
2022-11-06T21:58:21.255Z,100128.28
2022-11-06T22:00:50.872Z,100134.09
2022-11-06T22:03:20.144Z,100132.78
2022-11-06T22:05:49.726Z,100135.63
2022-11-06T22:08:17.483Z,100143.09
2022-11-06T22:10:45.184Z,100140.47
2022-11-06T22:13:12.942Z,100148.75
2022-11-06T22:15:40.879Z,100139.81
2022-11-06T22:18:09.361Z,100141.47
2022-11-06T22:20:39.896Z,100147.47
2022-11-06T22:23:07.523Z,100143.81
2022-11-06T22:25:35.943Z,100146.94
2022-11-06T22:28:03.526Z,100154.34
2022-11-06T22:30:31.053Z,100155.66
2022-11-06T22:33:01.888Z,100153.16
2022-11-06T22:35:29.602Z,100152.34
2022-11-06T22:37:58.468Z,100146.03
2022-11-06T22:40:26.898Z,100153.16
2022-11-06T22:42:54.432Z,100157.66
2022-11-06T22:45:22.282Z,100152.50
2022-11-06T22:47:50.902Z,100145.22
2022-11-06T22:50:18.883Z,100155.66
2022-11-06T22:52:46.550Z,100163.19
2022-11-06T22:55:15.607Z,100162.66
2022-11-06T22:57:43.103Z,100164.00
2022-11-06T23:00:12.097Z,100168.69
2022-11-06T23:02:39.846Z,100155.59
2022-11-06T23:05:08.573Z,100151.09
2022-11-06T23:07:36.145Z,100152.59
2022-11-06T23:10:03.810Z,100154.75
2022-11-06T23:12:32.827Z,100155.41
2022-11-06T23:15:00.467Z,100160.22
2022-11-06T23:17:28.693Z,100158.09
2022-11-06T23:19:56.505Z,100166.91
2022-11-06T23:22:39.426Z,100171.25
2022-11-06T23:25:09.735Z,100170.28
2022-11-06T23:27:39.293Z,100173.59
2022-11-06T23:30:10.686Z,100171.78
2022-11-06T23:32:39.773Z,100176.56
2022-11-06T23:35:13.314Z,100174.97
2022-11-06T23:37:43.509Z,100180.31
2022-11-06T23:40:12.665Z,100184.13
2022-11-06T23:42:43.150Z,100185.97
2022-11-06T23:45:29.591Z,100189.78
2022-11-06T23:47:57.271Z,100184.47
2022-11-06T23:50:24.795Z,100186.47
2022-11-06T23:52:52.422Z,100189.47
2022-11-06T23:55:20.331Z,100188.97
2022-11-06T23:57:49.238Z,100194.13
